createdAt,value
2019-06-27T00:00:25.942Z,80.09
2019-06-27T00:05:30.415Z,81.70
2019-06-27T00:10:34.649Z,82.06
2019-06-27T00:15:38.692Z,83.72
2019-06-27T00:20:42.764Z,84.85
2019-06-27T00:25:48.164Z,85.35
2019-06-27T00:30:52.644Z,86.53
2019-06-27T00:35:57.043Z,86.74
2019-06-27T00:41:01.185Z,87.48
2019-06-27T00:46:05.423Z,87.87
2019-06-27T00:51:09.534Z,87.55
2019-06-27T00:56:13.582Z,89.21
2019-06-27T01:01:17.672Z,90.06
2019-06-27T01:06:21.697Z,90.64
2019-06-27T01:11:26.054Z,90.34
2019-06-27T01:16:30.193Z,89.37
2019-06-27T01:21:34.278Z,88.68
2019-06-27T01:26:39.195Z,89.08
2019-06-27T01:31:43.297Z,88.25
2019-06-27T01:36:47.401Z,87.78
2019-06-27T01:41:51.461Z,88.58
2019-06-27T01:46:55.509Z,88.36
2019-06-27T01:51:59.531Z,88.05
2019-06-27T01:57:03.601Z,88.20
2019-06-27T02:02:07.738Z,87.30
2019-06-27T02:07:11.755Z,86.61
2019-06-27T02:12:15.916Z,84.51
2019-06-27T02:17:19.943Z,84.27
2019-06-27T02:22:24.227Z,83.65
2019-06-27T02:27:28.603Z,83.21
2019-06-27T02:32:32.612Z,82.70
2019-06-27T02:37:37.009Z,82.10
2019-06-27T02:42:41.163Z,81.86
2019-06-27T02:47:45.203Z,80.65
2019-06-27T02:52:49.303Z,81.52
2019-06-27T02:57:53.390Z,82.13
2019-06-27T03:02:57.435Z,83.00
2019-06-27T03:08:01.553Z,82.87
2019-06-27T03:13:05.608Z,81.66
2019-06-27T03:18:09.685Z,82.97
2019-06-27T03:23:14.111Z,83.12
2019-06-27T03:28:18.285Z,82.29
2019-06-27T03:33:22.335Z,82.05
2019-06-27T03:38:26.567Z,81.82
2019-06-27T03:43:30.738Z,81.48
2019-06-27T03:48:34.786Z,81.70
2019-06-27T03:53:39.179Z,80.61
2019-06-27T03:58:43.269Z,78.27
2019-06-27T04:03:47.386Z,76.84
2019-06-27T04:08:51.477Z,77.37
2019-06-27T04:13:55.535Z,75.94
2019-06-27T04:18:59.743Z,76.29
2019-06-27T04:24:03.861Z,76.44
2019-06-27T04:29:08.425Z,75.15
2019-06-27T04:34:12.437Z,71.75
2019-06-27T04:39:16.521Z,72.91
2019-06-27T04:44:20.909Z,75.46
2019-06-27T04:49:24.930Z,74.79
2019-06-27T04:54:28.998Z,65.64
2019-06-27T04:59:51.747Z,56.30
2019-06-27T05:04:38.769Z,58.89
2019-06-27T05:09:43.207Z,57.74
2019-06-27T05:14:47.282Z,63.34
2019-06-27T05:19:51.291Z,64.52
2019-06-27T05:24:55.394Z,42.82
2019-06-27T05:30:09.621Z,41.59
2019-06-27T05:35:06.283Z,39.78
2019-06-27T05:40:10.474Z,37.81
2019-06-27T05:45:15.136Z,32.45
2019-06-27T05:50:19.266Z,32.53
2019-06-27T05:55:23.282Z,30.96
2019-06-27T06:00:29.258Z,34.40
2019-06-27T06:05:33.375Z,31.68
2019-06-27T06:10:37.701Z,34.87
2019-06-27T06:15:41.696Z,38.08
2019-06-27T06:20:45.746Z,38.09
2019-06-27T06:25:49.879Z,40.33
2019-06-27T06:30:53.972Z,33.91
2019-06-27T06:35:57.985Z,36.09
2019-06-27T06:41:02.034Z,34.08
2019-06-27T06:46:06.588Z,33.63
2019-06-27T06:51:10.874Z,34.14
2019-06-27T06:56:16.334Z,34.75
2019-06-27T07:01:20.358Z,32.25
2019-06-27T07:06:24.539Z,32.14
2019-06-27T07:11:29.778Z,32.80
2019-06-27T07:16:33.894Z,33.68
2019-06-27T07:21:37.910Z,30.94
2019-06-27T07:26:42.066Z,32.15
2019-06-27T07:31:46.154Z,32.69
2019-06-27T07:36:50.200Z,32.38
2019-06-27T07:41:54.248Z,31.28
2019-06-27T07:46:59.345Z,32.80
2019-06-27T07:52:03.632Z,29.89
2019-06-27T07:57:07.685Z,30.40
2019-06-27T08:02:11.730Z,31.19
2019-06-27T08:07:16.848Z,30.20
2019-06-27T08:12:20.996Z,30.56
2019-06-27T08:17:25.323Z,33.20
2019-06-27T08:22:29.481Z,31.63
2019-06-27T08:27:33.996Z,30.17
2019-06-27T08:32:55.840Z,31.08
2019-06-27T08:37:59.882Z,31.02
2019-06-27T08:43:03.990Z,28.95
2019-06-27T08:48:08.540Z,28.26
2019-06-27T08:53:12.584Z,27.67
2019-06-27T08:58:16.690Z,27.71
2019-06-27T09:03:20.735Z,28.80
2019-06-27T09:08:24.772Z,30.33
2019-06-27T09:13:30.103Z,28.59
2019-06-27T09:18:34.615Z,28.11
2019-06-27T09:23:38.659Z,30.81
2019-06-27T09:28:44.068Z,31.16
2019-06-27T09:33:48.479Z,32.00
2019-06-27T09:38:52.511Z,29.36
2019-06-27T09:43:56.820Z,30.33
2019-06-27T09:49:01.007Z,31.06
2019-06-27T09:54:05.223Z,32.85
2019-06-27T09:59:09.277Z,33.02
2019-06-27T10:04:13.374Z,34.03
2019-06-27T10:09:18.531Z,35.30
2019-06-27T10:14:22.762Z,34.14
2019-06-27T10:19:27.541Z,32.52
2019-06-27T10:24:31.610Z,33.36
2019-06-27T10:29:35.993Z,34.25
2019-06-27T10:34:40.031Z,32.11
2019-06-27T10:39:44.896Z,34.23
2019-06-27T10:44:49.027Z,35.04
2019-06-27T10:49:54.201Z,32.90
2019-06-27T10:54:58.678Z,32.23
2019-06-27T11:00:02.963Z,32.27
2019-06-27T11:05:07.589Z,34.95
2019-06-27T11:10:12.301Z,34.75
2019-06-27T11:15:16.636Z,34.16
2019-06-27T11:20:20.736Z,32.86
2019-06-27T11:25:25.265Z,34.32
2019-06-27T11:30:29.308Z,33.74
2019-06-27T11:35:34.060Z,35.15
2019-06-27T11:40:38.677Z,34.35
2019-06-27T11:45:43.439Z,33.45
2019-06-27T11:50:49.035Z,34.24
2019-06-27T11:55:53.173Z,33.03
2019-06-27T12:00:57.429Z,34.55
2019-06-27T12:06:01.844Z,33.09
2019-06-27T12:11:06.572Z,34.10
2019-06-27T12:16:10.740Z,32.77
2019-06-27T12:21:15.044Z,33.20
2019-06-27T12:26:19.365Z,34.96
2019-06-27T12:31:23.529Z,33.06
2019-06-27T12:36:28.163Z,32.80
2019-06-27T12:41:39.680Z,33.98
2019-06-27T12:46:43.880Z,32.17
2019-06-27T12:51:48.321Z,34.38
2019-06-27T12:56:52.440Z,33.99
2019-06-27T13:01:56.695Z,33.77
2019-06-27T13:07:03.134Z,33.80
2019-06-27T13:12:07.315Z,34.48
2019-06-27T13:17:11.775Z,34.89
2019-06-27T13:22:15.827Z,32.73
2019-06-27T13:27:20.012Z,33.45
2019-06-27T13:32:25.469Z,30.96
2019-06-27T13:37:30.230Z,30.49
2019-06-27T13:42:37.996Z,30.91
2019-06-27T13:47:40.034Z,31.78
2019-06-27T13:52:44.120Z,30.70
2019-06-27T13:57:48.241Z,30.44
2019-06-27T14:02:52.446Z,32.05
2019-06-27T14:07:56.416Z,31.40
2019-06-27T14:13:01.316Z,29.95
2019-06-27T14:18:05.408Z,31.40
2019-06-27T14:23:09.458Z,29.84
2019-06-27T14:28:13.564Z,29.88
2019-06-27T14:33:17.576Z,31.26
2019-06-27T14:38:21.616Z,31.24
2019-06-27T14:43:25.619Z,32.52
2019-06-27T14:48:29.827Z,31.77
2019-06-27T14:53:34.053Z,32.32
2019-06-27T14:58:38.088Z,31.79
2019-06-27T15:03:42.136Z,33.19
2019-06-27T15:08:46.218Z,32.24
2019-06-27T15:13:50.268Z,33.76
2019-06-27T15:18:54.339Z,34.44
2019-06-27T15:23:58.344Z,33.77
2019-06-27T15:29:02.431Z,34.55
2019-06-27T15:34:07.565Z,34.71
2019-06-27T15:39:12.239Z,33.76
2019-06-27T15:44:20.470Z,33.68
2019-06-27T15:49:22.524Z,35.83
2019-06-27T15:54:27.009Z,36.28
2019-06-27T15:59:30.969Z,36.02
2019-06-27T16:04:35.248Z,34.53
2019-06-27T16:09:39.409Z,35.35
2019-06-27T16:14:46.955Z,36.36
2019-06-27T16:19:54.165Z,36.16
2019-06-27T16:24:58.275Z,36.24
2019-06-27T16:30:02.388Z,36.59
2019-06-27T16:35:06.618Z,36.49
2019-06-27T16:40:10.982Z,37.75
2019-06-27T16:45:15.249Z,37.01
2019-06-27T16:50:19.339Z,39.00
2019-06-27T16:55:23.469Z,39.15
2019-06-27T17:00:27.506Z,38.53
2019-06-27T17:05:31.514Z,39.06
2019-06-27T17:10:35.596Z,39.75
2019-06-27T17:15:39.746Z,39.70
2019-06-27T17:20:43.900Z,39.51
2019-06-27T17:25:47.932Z,39.80
2019-06-27T17:30:52.220Z,39.85
2019-06-27T17:35:56.221Z,41.31
2019-06-27T17:41:00.242Z,41.66
2019-06-27T17:46:04.355Z,43.16
2019-06-27T17:51:08.581Z,41.90
2019-06-27T17:56:12.973Z,43.36
2019-06-27T18:01:17.012Z,43.88
2019-06-27T18:06:21.088Z,45.06
2019-06-27T18:11:25.383Z,46.64
2019-06-27T18:16:29.445Z,46.19
2019-06-27T18:21:33.467Z,46.42
2019-06-27T18:26:37.586Z,48.14
2019-06-27T18:31:41.642Z,47.25
2019-06-27T18:36:45.777Z,48.71
2019-06-27T18:41:49.831Z,49.01
2019-06-27T18:46:54.452Z,51.06
2019-06-27T18:51:58.531Z,51.54
2019-06-27T18:57:03.479Z,52.68
2019-06-27T19:02:07.965Z,53.75
2019-06-27T19:07:11.971Z,54.20
2019-06-27T19:12:19.193Z,55.05
2019-06-27T19:17:22.404Z,55.52
2019-06-27T19:22:26.564Z,57.15
2019-06-27T19:27:30.910Z,56.64
2019-06-27T19:32:35.620Z,57.81
2019-06-27T19:37:39.669Z,57.82
2019-06-27T19:42:43.995Z,58.07
2019-06-27T19:47:48.039Z,59.61
2019-06-27T19:52:52.095Z,60.03
2019-06-27T19:57:56.143Z,59.76
2019-06-27T20:03:00.204Z,61.58
2019-06-27T20:08:17.940Z,62.44
2019-06-27T20:13:12.195Z,64.27
2019-06-27T20:18:16.211Z,63.98
2019-06-27T20:23:20.579Z,65.78
2019-06-27T20:28:25.070Z,65.91
2019-06-27T20:33:29.060Z,65.42
2019-06-27T20:38:35.248Z,65.41
2019-06-27T20:43:39.063Z,65.62
2019-06-27T20:48:43.194Z,66.98
2019-06-27T20:53:47.538Z,66.81
2019-06-27T20:58:51.576Z,67.28
2019-06-27T21:03:55.788Z,67.22
2019-06-27T21:09:00.312Z,68.13
2019-06-27T21:14:04.400Z,68.79
2019-06-27T21:19:08.537Z,68.87
2019-06-27T21:24:12.662Z,69.06
2019-06-27T21:29:21.005Z,69.29
2019-06-27T21:34:30.572Z,69.80
2019-06-27T21:39:34.597Z,69.89
2019-06-27T21:44:38.632Z,70.31
2019-06-27T21:49:43.092Z,70.74
2019-06-27T21:54:47.184Z,71.71
2019-06-27T21:59:51.292Z,72.52
2019-06-27T22:04:55.286Z,72.25
2019-06-27T22:09:59.679Z,73.34
2019-06-27T22:15:04.155Z,74.06
2019-06-27T22:20:14.939Z,74.39
2019-06-27T22:25:14.222Z,75.17
2019-06-27T22:30:18.548Z,75.16
2019-06-27T22:35:22.650Z,75.01
2019-06-27T22:40:26.686Z,75.95
2019-06-27T22:45:30.786Z,76.54
2019-06-27T22:50:34.926Z,77.34
2019-06-27T22:55:38.934Z,77.05
2019-06-27T23:00:42.954Z,78.17
2019-06-27T23:05:47.502Z,79.24
2019-06-27T23:10:52.618Z,80.38
2019-06-27T23:15:56.930Z,81.00
2019-06-27T23:21:00.985Z,81.21
2019-06-27T23:26:05.022Z,81.78
2019-06-27T23:31:09.058Z,82.70
2019-06-27T23:36:13.347Z,84.11
2019-06-27T23:41:17.440Z,84.54
2019-06-27T23:46:21.893Z,85.14
2019-06-27T23:51:25.924Z,85.65
2019-06-27T23:56:29.985Z,85.89
